Stinson Beach, California
Current Conditions -  °F | °C
As of 1:03 PM on Thursday 20 Nov 2014 (Local Time) from KSFO Reporting Station
Light Rain Light Rain  
Wind Chill: 57°   Ceiling: 2600
Heat Index: 57°   Visibility: 6mi
Dew Point: 55°   Wind: 5mph
Humidity: 94%   Direction: 210°SSW
Pressure: 30.05"   Gusts: NA
Location:  37.9°N, 122.64°W
Report Text: KSFO 202103Z 21004KT 6SM -RA BR FEW009 SCT014 OVC026 14/13 A3005 RMK AO2 P0000
Loading
Personal Weather Stations






























Interactive Weather Map New forecast layout! Learn more

10-Day Weather Forecast

Advertisements
Track Severe Weather on mobile